Time;durP1;ratioP1;P1;durP2;ratioP2;P2;SDS_P1;SDS_P2;PMS_P1;PMS_P2;Temp;Humidity;BMP_temperature;BMP_pressure;BME280_temperature;BME280_humidity;BME280_pressure;Samples;Min_cycle;Max_cycle;Signal;HPM_P1;HPM_P2
2023/09/16 00:00:59;;;;;;;8.82;8.00;;;17.10;99.90;;;;;;5095854;28;20058;-82
2023/09/16 00:03:25;;;;;;;9.65;8.68;;;17.00;99.90;;;;;;5095106;28;20043;-81
2023/09/16 00:05:52;;;;;;;10.52;9.45;;;17.00;99.90;;;;;;5074782;28;20173;-81
2023/09/16 00:08:18;;;;;;;9.75;8.65;;;17.00;99.90;;;;;;5075974;28;20118;-81
2023/09/16 00:10:43;;;;;;;11.77;10.52;;;17.00;99.90;;;;;;5075252;28;20122;-81
2023/09/16 00:13:09;;;;;;;15.10;11.10;;;17.10;99.90;;;;;;5068482;28;20058;-80
2023/09/16 00:15:35;;;;;;;12.55;11.35;;;17.20;99.90;;;;;;5061606;28;20100;-82
2023/09/16 00:18:00;;;;;;;12.68;11.30;;;17.20;99.90;;;;;;5076827;28;20058;-81
2023/09/16 00:20:28;;;;;;;13.40;11.95;;;17.20;99.90;;;;;;5082836;28;20043;-82
2023/09/16 00:22:54;;;;;;;14.15;11.88;;;17.20;99.90;;;;;;5077398;28;20063;-81
2023/09/16 00:25:20;;;;;;;13.38;10.40;;;17.20;99.90;;;;;;5067179;28;20043;-80
2023/09/16 00:27:46;;;;;;;10.38;9.35;;;17.20;99.90;;;;;;5089747;27;20451;-81
2023/09/16 00:30:11;;;;;;;9.70;8.70;;;17.00;99.90;;;;;;5079379;27;20035;-80
2023/09/16 00:32:37;;;;;;;10.38;9.38;;;16.90;99.90;;;;;;5083201;27;20036;-81
2023/09/16 00:35:04;;;;;;;9.32;8.02;;;17.00;99.90;;;;;;5067711;27;20051;-82
2023/09/16 00:37:30;;;;;;;9.10;8.20;;;16.80;99.90;;;;;;5085174;27;20067;-82
2023/09/16 00:39:56;;;;;;;10.50;9.40;;;16.70;99.90;;;;;;5050598;27;20162;-81
2023/09/16 00:42:22;;;;;;;12.48;9.63;;;16.70;99.90;;;;;;5082012;27;20053;-82
2023/09/16 00:44:48;;;;;;;10.77;9.68;;;16.70;99.90;;;;;;5093246;27;20111;-83
2023/09/16 00:47:13;;;;;;;10.32;9.32;;;16.80;99.90;;;;;;5096198;27;20035;-82
2023/09/16 00:49:40;;;;;;;11.70;10.18;;;16.80;99.90;;;;;;5074016;27;20043;-83
2023/09/16 00:52:07;;;;;;;10.88;9.57;;;16.90;99.90;;;;;;5081787;27;20046;-80
2023/09/16 00:54:34;;;;;;;12.02;10.55;;;16.80;99.90;;;;;;5087746;27;20039;-81
2023/09/16 00:57:02;;;;;;;13.95;11.98;;;17.60;99.90;;;;;;5096285;27;20035;-81
2023/09/16 00:59:29;;;;;;;13.07;11.52;;;16.90;99.90;;;;;;5079163;27;20031;-81
2023/09/16 01:01:55;;;;;;;13.02;11.73;;;17.00;99.90;;;;;;5088480;27;20305;-81
2023/09/16 01:04:22;;;;;;;13.98;12.52;;;17.10;99.90;;;;;;5073886;28;20375;-81
2023/09/16 01:06:50;;;;;;;17.52;13.23;;;17.00;99.90;;;;;;5073956;27;20136;-80
2023/09/16 01:09:17;;;;;;;14.68;13.18;;;17.00;99.90;;;;;;5081428;27;20112;-82
2023/09/16 01:11:46;;;;;;;14.82;13.30;;;17.10;99.90;;;;;;5087996;27;20071;-82
2023/09/16 01:14:12;;;;;;;16.17;14.25;;;17.30;99.90;;;;;;5095919;27;20036;-81
2023/09/16 01:17:14;;;;;;;16.38;13.30;;;17.40;99.90;;;;;;5073674;27;20684;-81
2023/09/16 01:20:01;;;;;;;14.38;11.80;;;17.30;99.90;;;;;;5082026;27;20176;-81
2023/09/16 01:22:28;;;;;;;10.63;9.60;;;17.20;99.90;;;;;;5094085;27;20043;-81
2023/09/16 01:25:05;;;;;;;10.65;9.55;;;17.00;99.90;;;;;;5079389;27;20042;-81
2023/09/16 01:27:31;;;;;;;10.18;9.18;;;16.90;99.90;;;;;;5114194;27;20092;-82
2023/09/16 01:29:58;;;;;;;10.85;9.05;;;16.70;99.90;;;;;;5096446;27;20031;-81
2023/09/16 01:32:31;;;;;;;7.95;7.22;;;16.60;99.90;;;;;;5072333;27;20035;-82
2023/09/16 01:35:00;;;;;;;8.27;7.47;;;16.50;99.90;;;;;;5081341;27;20043;-83
2023/09/16 01:37:29;;;;;;;9.02;8.20;;;16.30;99.90;;;;;;5084602;28;20043;-81
2023/09/16 01:39:59;;;;;;;9.77;8.88;;;16.20;99.90;;;;;;5064463;27;20035;-81
2023/09/16 01:42:29;;;;;;;11.13;9.27;;;16.20;99.90;;;;;;5087021;27;20039;-83
2023/09/16 01:44:55;;;;;;;9.32;8.43;;;17.00;99.90;;;;;;5065561;27;20044;-82
2023/09/16 01:47:21;;;;;;;11.57;10.43;;;16.20;99.90;;;;;;5096569;27;20119;-81
2023/09/16 01:49:47;;;;;;;12.43;10.98;;;16.20;99.90;;;;;;5074110;27;20747;-81
2023/09/16 01:52:16;;;;;;;13.05;11.85;;;16.20;99.90;;;;;;5067890;27;20498;-81
2023/09/16 01:54:42;;;;;;;13.00;11.63;;;16.30;99.90;;;;;;5064901;27;20063;-80
2023/09/16 01:57:08;;;;;;;14.15;11.55;;;16.30;99.90;;;;;;5087024;27;20070;-80
2023/09/16 01:59:34;;;;;;;13.82;12.43;;;16.30;99.90;;;;;;5094902;27;20876;-81
2023/09/16 02:02:00;;;;;;;13.70;12.32;;;16.30;99.90;;;;;;5083961;27;20058;-80
2023/09/16 02:04:26;;;;;;;13.95;12.48;;;16.40;99.90;;;;;;5079818;27;20426;-81
2023/09/16 02:06:51;;;;;;;13.80;12.38;;;16.40;99.90;;;;;;5075520;27;20050;-81
2023/09/16 02:09:17;;;;;;;13.05;11.68;;;16.40;99.90;;;;;;5054068;27;20097;-79
2023/09/16 02:11:43;;;;;;;11.57;10.38;;;16.40;99.90;;;;;;5088396;27;20041;-82
2023/09/16 02:14:12;;;;;;;11.88;10.68;;;16.30;99.90;;;;;;5070897;27;20058;-82
2023/09/16 02:16:38;;;;;;;10.00;9.02;;;16.20;99.90;;;;;;5080585;27;20138;-83
2023/09/16 02:19:05;;;;;;;9.90;8.77;;;16.10;99.90;;;;;;5086052;27;20135;-82
2023/09/16 02:21:31;;;;;;;11.68;10.55;;;16.00;99.90;;;;;;5098266;27;20045;-83
2023/09/16 02:23:57;;;;;;;12.10;10.50;;;16.10;99.90;;;;;;5085887;28;20411;-81
2023/09/16 02:26:23;;;;;;;12.48;11.25;;;16.20;99.90;;;;;;5071800;27;20468;-81
2023/09/16 02:28:49;;;;;;;14.40;11.93;;;16.20;99.90;;;;;;5071727;27;20065;-81
2023/09/16 02:31:15;;;;;;;14.63;13.02;;;16.30;99.90;;;;;;5057643;27;20114;-82
2023/09/16 02:33:41;;;;;;;11.88;10.68;;;16.30;99.90;;;;;;5068104;27;20084;-81
2023/09/16 02:36:07;;;;;;;12.02;10.82;;;16.30;99.90;;;;;;5086539;27;20037;-82
2023/09/16 02:38:33;;;;;;;12.40;11.00;;;16.30;99.90;;;;;;5077413;27;20122;-80
2023/09/16 02:41:05;;;;;;;10.90;9.90;;;16.30;99.90;;;;;;5089059;27;20043;-81
2023/09/16 02:43:31;;;;;;;14.05;12.65;;;16.20;99.90;;;;;;5094160;27;20032;-81
2023/09/16 02:45:57;;;;;;;12.73;11.43;;;16.20;99.90;;;;;;5092080;27;20130;-80
2023/09/16 02:48:23;;;;;;;12.50;11.18;;;16.20;99.90;;;;;;5076353;28;20682;-80
2023/09/16 02:50:49;;;;;;;12.57;11.38;;;16.20;99.90;;;;;;5085652;27;20544;-80
2023/09/16 02:53:16;;;;;;;13.35;11.85;;;16.10;99.90;;;;;;5081876;27;21845;-81
2023/09/16 02:55:41;;;;;;;11.52;10.20;;;16.10;99.90;;;;;;5094854;27;20043;-81
2023/09/16 02:58:07;;;;;;;11.15;9.10;;;16.10;99.90;;;;;;5093061;28;20038;-83
2023/09/16 03:00:33;;;;;;;9.80;8.80;;;16.00;99.90;;;;;;5076629;27;20396;-81
2023/09/16 03:02:59;;;;;;;10.90;9.82;;;16.00;99.90;;;;;;5077216;27;20040;-82
2023/09/16 03:05:25;;;;;;;11.10;9.93;;;16.00;99.90;;;;;;5062614;27;20035;-81
2023/09/16 03:07:51;;;;;;;10.95;9.60;;;15.90;99.90;;;;;;5086852;28;20560;-81
2023/09/16 03:10:16;;;;;;;12.35;11.07;;;16.00;99.90;;;;;;5093692;27;20073;-81
2023/09/16 03:12:42;;;;;;;12.02;10.57;;;16.00;99.90;;;;;;5077148;27;20046;-82
2023/09/16 03:15:11;;;;;;;12.70;11.40;;;16.00;99.90;;;;;;5067808;27;20508;-80
2023/09/16 03:17:36;;;;;;;16.92;12.10;;;16.00;99.90;;;;;;5095058;27;20051;-81
2023/09/16 03:20:02;;;;;;;14.80;13.30;;;16.00;99.90;;;;;;5053003;27;20036;-81
2023/09/16 03:22:28;;;;;;;14.55;12.70;;;16.10;99.90;;;;;;5093862;27;20126;-82
2023/09/16 03:24:54;;;;;;;13.43;11.90;;;16.20;99.90;;;;;;5075395;27;20134;-81
2023/09/16 03:27:20;;;;;;;17.27;14.05;;;16.20;99.90;;;;;;5091750;27;20038;-81
2023/09/16 03:29:45;;;;;;;14.90;13.30;;;16.30;99.90;;;;;;5073142;27;20084;-82
2023/09/16 03:32:11;;;;;;;14.57;12.65;;;16.40;99.90;;;;;;5086982;28;20130;-81
2023/09/16 03:34:37;;;;;;;12.30;11.10;;;16.40;99.90;;;;;;5066968;28;20039;-80
2023/09/16 03:37:03;;;;;;;13.63;12.27;;;16.30;99.90;;;;;;5067532;28;20035;-80
2023/09/16 03:39:29;;;;;;;13.25;11.95;;;16.40;99.90;;;;;;5095788;27;20521;-82
2023/09/16 03:41:54;;;;;;;13.95;12.50;;;16.30;99.90;;;;;;5082730;28;20023;-82
2023/09/16 03:44:20;;;;;;;11.40;10.05;;;16.30;99.90;;;;;;5100159;27;20101;-82
2023/09/16 03:46:47;;;;;;;9.13;8.27;;;16.20;99.90;;;;;;5048629;27;20533;-81
2023/09/16 03:49:13;;;;;;;9.60;8.70;;;16.20;99.90;;;;;;5079491;28;20027;-81
2023/09/16 03:51:39;;;;;;;9.63;8.40;;;16.10;99.90;;;;;;5083034;27;20483;-81
2023/09/16 03:54:06;;;;;;;9.82;8.82;;;16.10;99.90;;;;;;5091639;28;21548;-80
2023/09/16 03:56:33;;;;;;;10.98;9.93;;;15.90;99.90;;;;;;5047312;28;20043;-83
2023/09/16 03:58:58;;;;;;;14.65;13.15;;;16.10;99.90;;;;;;5075017;28;20064;-81
2023/09/16 04:01:24;;;;;;;18.27;16.00;;;16.00;99.90;;;;;;5094134;28;20039;-82
2023/09/16 04:03:50;;;;;;;18.45;16.58;;;16.20;99.90;;;;;;5063780;28;20104;-81
2023/09/16 04:06:16;;;;;;;17.40;15.60;;;16.20;99.90;;;;;;5091723;28;20056;-82
2023/09/16 04:08:41;;;;;;;17.73;14.98;;;16.30;99.90;;;;;;5095764;28;20043;-83
2023/09/16 04:11:07;;;;;;;16.83;15.13;;;16.30;99.90;;;;;;5094790;28;20039;-82
2023/09/16 04:13:33;;;;;;;18.38;16.48;;;16.30;99.90;;;;;;5095829;28;20450;-81
2023/09/16 04:15:59;;;;;;;21.35;19.25;;;16.30;99.90;;;;;;5089924;28;20047;-81
2023/09/16 04:18:25;;;;;;;20.23;18.15;;;16.40;99.90;;;;;;5078794;28;20544;-81
2023/09/16 04:20:55;;;;;;;19.33;17.23;;;16.40;99.90;;;;;;5111824;28;20043;-82
2023/09/16 04:23:24;;;;;;;21.05;18.25;;;16.50;99.90;;;;;;5103156;28;20035;-83
2023/09/16 04:25:57;;;;;;;16.77;14.90;;;16.40;99.90;;;;;;5093747;28;20035;-82
2023/09/16 04:28:23;;;;;;;22.67;18.40;;;16.40;99.90;;;;;;5081705;28;20097;-81
2023/09/16 04:30:50;;;;;;;14.90;13.45;;;16.30;99.90;;;;;;5058996;28;20582;-81
2023/09/16 04:33:17;;;;;;;16.30;14.63;;;16.30;99.90;;;;;;5106538;28;20066;-81
2023/09/16 04:35:47;;;;;;;20.23;18.13;;;16.30;99.90;;;;;;5111944;28;20043;-81
2023/09/16 04:38:13;;;;;;;23.65;19.08;;;16.40;99.90;;;;;;5110392;28;20078;-82
2023/09/16 04:40:42;;;;;;;20.10;17.95;;;16.30;99.90;;;;;;5095779;28;20050;-84
2023/09/16 04:43:08;;;;;;;21.70;17.27;;;16.30;99.90;;;;;;5104527;28;20075;-82
2023/09/16 04:45:34;;;;;;;21.83;18.30;;;16.30;99.90;;;;;;5094716;28;20047;-78
2023/09/16 04:48:00;;;;;;;22.45;19.70;;;16.40;99.90;;;;;;5092607;28;20045;-79
2023/09/16 04:50:29;;;;;;;22.08;18.88;;;16.40;99.90;;;;;;5080664;28;20047;-80
2023/09/16 04:52:56;;;;;;;21.33;19.13;;;16.30;99.90;;;;;;5087001;28;20074;-78
2023/09/16 04:55:21;;;;;;;21.27;19.15;;;16.40;99.90;;;;;;5076341;28;20096;-79
2023/09/16 04:57:47;;;;;;;20.50;18.25;;;16.40;99.90;;;;;;5074854;28;20035;-78
2023/09/16 05:00:13;;;;;;;20.83;18.63;;;16.40;99.90;;;;;;5054182;28;20040;-79
2023/09/16 05:02:38;;;;;;;18.58;16.77;;;16.40;99.90;;;;;;5074512;28;20421;-79
2023/09/16 05:05:04;;;;;;;19.13;16.73;;;16.40;99.90;;;;;;5090943;28;20051;-78
2023/09/16 05:07:30;;;;;;;16.90;15.20;;;16.30;99.90;;;;;;5067962;28;20130;-78
2023/09/16 05:09:57;;;;;;;14.45;12.88;;;16.20;99.90;;;;;;5069396;28;20201;-79
2023/09/16 05:12:23;;;;;;;55.08;9.00;;;16.20;99.90;;;;;;5093623;27;20506;-79
2023/09/16 05:14:50;;;;;;;10.40;8.55;;;15.90;99.90;;;;;;5090087;27;20111;-80
2023/09/16 05:17:16;;;;;;;9.38;8.13;;;15.80;99.90;;;;;;5071253;28;20043;-79
2023/09/16 05:19:42;;;;;;;10.13;9.20;;;15.70;99.90;;;;;;5079697;27;20043;-79
2023/09/16 05:22:07;;;;;;;58.40;12.18;;;15.70;99.90;;;;;;5078701;27;20035;-79
2023/09/16 05:24:33;;;;;;;12.82;10.88;;;15.70;99.90;;;;;;5098339;27;20043;-78
2023/09/16 05:26:59;;;;;;;14.73;13.30;;;15.80;99.90;;;;;;5077653;27;20043;-80
2023/09/16 05:29:25;;;;;;;16.55;14.80;;;15.90;99.90;;;;;;5076508;27;20031;-78
2023/09/16 05:31:53;;;;;;;14.95;13.55;;;15.90;99.90;;;;;;5090183;27;20152;-77
2023/09/16 05:34:19;;;;;;;18.02;16.23;;;15.90;99.90;;;;;;5076964;27;20459;-78
2023/09/16 05:36:44;;;;;;;17.60;15.90;;;16.10;99.90;;;;;;5093370;27;20035;-78
2023/09/16 05:39:10;;;;;;;17.70;15.90;;;16.10;99.90;;;;;;5045966;27;20032;-76
2023/09/16 05:41:36;;;;;;;20.42;17.55;;;16.10;99.90;;;;;;5086623;27;20122;-77
2023/09/16 05:44:02;;;;;;;19.38;17.23;;;16.20;99.90;;;;;;5097501;27;20080;-77
2023/09/16 05:46:28;;;;;;;17.70;15.95;;;16.30;99.90;;;;;;5083330;27;20036;-77
2023/09/16 05:49:06;;;;;;;18.83;16.88;;;16.30;99.90;;;;;;5077995;27;20039;-77
2023/09/16 05:51:35;;;;;;;19.42;17.42;;;16.40;99.90;;;;;;5098933;27;20127;-81
2023/09/16 05:54:01;;;;;;;20.60;17.90;;;16.40;99.90;;;;;;5077651;27;20050;-80
2023/09/16 05:56:27;;;;;;;20.35;18.35;;;16.50;99.90;;;;;;5111665;27;20121;-80
2023/09/16 05:58:54;;;;;;;23.35;20.85;;;16.60;99.90;;;;;;5077239;27;20047;-79
2023/09/16 06:01:20;;;;;;;21.23;18.70;;;16.60;99.90;;;;;;5063204;27;20043;-85
2023/09/16 06:03:46;;;;;;;22.40;18.55;;;16.80;99.90;;;;;;5078849;28;20503;-84
2023/09/16 06:06:11;;;;;;;22.88;17.77;;;17.00;99.90;;;;;;5098151;27;20093;-81
2023/09/16 06:08:37;;;;;;;19.70;17.63;;;17.10;99.90;;;;;;5083504;27;20047;-82
2023/09/16 06:11:03;;;;;;;20.33;18.42;;;17.20;99.90;;;;;;5083273;27;20460;-84
2023/09/16 06:13:29;;;;;;;17.77;15.98;;;17.20;99.90;;;;;;5086353;28;20101;-82
2023/09/16 06:15:55;;;;;;;17.02;15.48;;;17.30;99.90;;;;;;5078017;27;20079;-80
2023/09/16 06:18:21;;;;;;;18.30;16.45;;;17.40;99.90;;;;;;5075340;27;20118;-82
2023/09/16 06:20:47;;;;;;;16.90;15.05;;;17.40;99.90;;;;;;5090757;27;20088;-83
2023/09/16 06:23:14;;;;;;;17.33;15.70;;;17.50;99.90;;;;;;5077686;28;20602;-83
2023/09/16 06:25:40;;;;;;;17.45;15.75;;;17.40;99.90;;;;;;5082209;27;20035;-80
2023/09/16 06:28:06;;;;;;;17.33;15.55;;;17.50;99.90;;;;;;5112086;27;20047;-79
2023/09/16 06:30:32;;;;;;;16.67;15.07;;;17.50;99.90;;;;;;5097135;27;20046;-80
2023/09/16 06:32:57;;;;;;;16.13;14.60;;;17.50;99.90;;;;;;5083720;27;20043;-81
2023/09/16 06:35:23;;;;;;;17.80;16.10;;;17.60;99.90;;;;;;5072418;27;20391;-81
2023/09/16 06:37:50;;;;;;;19.58;17.50;;;17.70;99.90;;;;;;5093424;27;20050;-76
2023/09/16 06:40:17;;;;;;;20.08;17.60;;;17.80;99.90;;;;;;5084635;27;20043;-80
2023/09/16 06:42:43;;;;;;;21.58;19.33;;;17.70;99.90;;;;;;5096614;27;20039;-81
2023/09/16 06:45:09;;;;;;;20.92;18.65;;;17.80;99.90;;;;;;5085783;27;20070;-81
2023/09/16 06:47:35;;;;;;;20.15;18.05;;;18.00;99.90;;;;;;5098952;28;20061;-82
2023/09/16 06:50:01;;;;;;;21.05;18.48;;;18.20;99.90;;;;;;5071055;27;20108;-81
2023/09/16 06:52:28;;;;;;;21.02;19.00;;;18.40;99.90;;;;;;5081630;27;20035;-80
2023/09/16 06:54:54;;;;;;;20.50;18.25;;;18.50;99.90;;;;;;5075083;27;20159;-79
2023/09/16 06:57:20;;;;;;;20.70;18.50;;;18.60;99.90;;;;;;5090953;28;20038;-78
2023/09/16 06:59:49;;;;;;;22.88;18.85;;;18.50;99.90;;;;;;5096847;28;20051;-81
2023/09/16 07:02:16;;;;;;;20.17;18.08;;;18.70;99.90;;;;;;5096086;27;20047;-79
2023/09/16 07:04:42;;;;;;;20.88;18.77;;;18.80;99.90;;;;;;5094342;28;20048;-78
2023/09/16 07:07:12;;;;;;;21.23;18.65;;;19.00;99.90;;;;;;5077027;27;20059;-80
2023/09/16 07:09:38;;;;;;;20.50;17.48;;;18.90;99.90;;;;;;5067038;28;20046;-81
2023/09/16 07:12:07;;;;;;;21.85;18.15;;;19.10;99.90;;;;;;5096867;28;20368;-80
2023/09/16 07:14:37;;;;;;;22.05;19.75;;;19.20;99.90;;;;;;5082602;27;20391;-82
2023/09/16 07:17:04;;;;;;;19.90;17.08;;;19.30;99.90;;;;;;5083181;28;20035;-82
2023/09/16 07:19:30;;;;;;;20.45;18.02;;;19.40;99.90;;;;;;5097463;28;20100;-81
2023/09/16 07:21:56;;;;;;;19.05;17.08;;;19.30;99.90;;;;;;5096206;27;20956;-81
2023/09/16 07:24:22;;;;;;;19.20;17.20;;;19.40;99.90;;;;;;5084660;27;20100;-81
2023/09/16 07:26:49;;;;;;;19.30;17.00;;;19.70;99.90;;;;;;5100552;27;20050;-86
2023/09/16 07:29:17;;;;;;;18.13;16.23;;;19.70;99.90;;;;;;5104413;27;20031;-85
2023/09/16 07:31:42;;;;;;;18.80;16.80;;;19.90;99.90;;;;;;5069901;27;20053;-83
2023/09/16 07:34:08;;;;;;;17.77;15.75;;;19.80;99.90;;;;;;5082310;28;20498;-80
2023/09/16 07:36:34;;;;;;;20.58;16.67;;;19.90;99.90;;;;;;5079084;27;20028;-84
2023/09/16 07:39:01;;;;;;;18.88;16.90;;;20.00;99.90;;;;;;5061853;28;20125;-82
2023/09/16 07:41:27;;;;;;;17.85;15.95;;;20.20;99.90;;;;;;5048010;27;20039;-83
2023/09/16 07:43:52;;;;;;;17.70;15.88;;;20.20;99.90;;;;;;5077024;27;20112;-81
2023/09/16 07:46:18;;;;;;;18.95;16.13;;;20.40;99.90;;;;;;5084221;28;20708;-82
2023/09/16 07:48:44;;;;;;;16.98;15.25;;;20.50;99.90;;;;;;5089871;28;20031;-80
2023/09/16 07:51:10;;;;;;;18.05;16.20;;;20.40;99.90;;;;;;5049651;28;20035;-80
2023/09/16 07:53:36;;;;;;;17.98;16.17;;;20.40;99.90;;;;;;5061019;28;20045;-80
2023/09/16 07:56:02;;;;;;;17.08;15.25;;;20.60;99.90;;;;;;5078495;28;20046;-80
2023/09/16 07:58:27;;;;;;;16.65;15.02;;;20.60;99.90;;;;;;5069838;28;20035;-82
2023/09/16 08:00:53;;;;;;;19.08;16.90;;;20.70;99.90;;;;;;5090254;28;20031;-82
2023/09/16 08:03:19;;;;;;;18.08;15.65;;;20.90;99.90;;;;;;5057167;28;20066;-80
2023/09/16 08:05:45;;;;;;;17.23;15.43;;;20.90;99.90;;;;;;5094660;28;20043;-81
2023/09/16 08:08:11;;;;;;;21.23;16.92;;;21.10;99.90;;;;;;5085109;28;20092;-82
2023/09/16 08:10:37;;;;;;;17.92;15.98;;;21.10;99.90;;;;;;5085970;28;20043;-83
2023/09/16 08:13:03;;;;;;;17.92;15.95;;;21.30;99.90;;;;;;5073945;28;20054;-84
2023/09/16 08:15:30;;;;;;;18.35;16.45;;;21.20;99.90;;;;;;5074436;28;20078;-84
2023/09/16 08:17:56;;;;;;;18.30;16.20;;;21.30;99.90;;;;;;5092770;28;20046;-84
2023/09/16 08:20:24;;;;;;;18.77;16.77;;;21.40;99.90;;;;;;5081074;28;20426;-85
2023/09/16 08:22:49;;;;;;;18.40;16.45;;;21.50;99.90;;;;;;5082049;28;20034;-83
2023/09/16 08:25:15;;;;;;;18.88;16.35;;;21.40;99.90;;;;;;5092807;28;20483;-84
2023/09/16 08:27:41;;;;;;;18.30;16.38;;;21.60;99.90;;;;;;5071151;28;20031;-84
2023/09/16 08:30:07;;;;;;;17.25;15.32;;;21.70;99.90;;;;;;5081222;28;20031;-84
2023/09/16 08:32:36;;;;;;;16.85;15.05;;;21.50;99.90;;;;;;5068008;28;20150;-84
2023/09/16 08:35:01;;;;;;;17.52;15.45;;;21.60;99.90;;;;;;5089398;28;20035;-84
2023/09/16 08:37:27;;;;;;;16.35;14.35;;;21.80;99.90;;;;;;5084946;28;20361;-84
2023/09/16 08:39:55;;;;;;;17.27;14.77;;;21.80;99.90;;;;;;5079754;28;20070;-84
2023/09/16 08:42:35;;;;;;;19.25;15.43;;;22.00;99.90;;;;;;5063183;28;20039;-82
2023/09/16 08:45:06;;;;;;;17.77;15.20;;;22.10;99.90;;;;;;5079116;27;20042;-83
2023/09/16 08:47:43;;;;;;;18.25;15.88;;;22.20;99.90;;;;;;5092707;27;20078;-84
2023/09/16 08:50:10;;;;;;;17.65;15.77;;;22.20;99.90;;;;;;5122389;27;20417;-84
2023/09/16 08:52:48;;;;;;;19.08;15.00;;;22.30;99.90;;;;;;5076101;27;20356;-84
2023/09/16 08:55:15;;;;;;;16.60;14.90;;;22.50;99.90;;;;;;5085932;28;20379;-79
2023/09/16 08:58:06;;;;;;;14.98;13.48;;;22.60;99.90;;;;;;5093711;27;20491;-85
2023/09/16 09:00:32;;;;;;;14.88;13.35;;;22.60;99.90;;;;;;5090528;28;20055;-87
2023/09/16 09:03:08;;;;;;;14.63;13.13;;;22.80;99.90;;;;;;5074237;28;20039;-87
2023/09/16 09:05:38;;;;;;;15.15;13.63;;;22.80;99.90;;;;;;5080173;28;20044;-88
2023/09/16 09:08:09;;;;;;;15.32;13.82;;;22.80;99.90;;;;;;5086687;28;20086;-87
2023/09/16 09:10:39;;;;;;;14.77;13.13;;;22.80;99.90;;;;;;5064426;28;20048;-85
2023/09/16 09:13:12;;;;;;;15.32;13.73;;;22.70;99.90;;;;;;5080293;28;20039;-89
2023/09/16 09:15:40;;;;;;;14.23;12.40;;;23.00;99.90;;;;;;5080344;28;20050;-85
2023/09/16 09:18:06;;;;;;;14.88;12.60;;;23.10;99.90;;;;;;5080445;28;20126;-85
2023/09/16 09:20:33;;;;;;;13.07;11.23;;;23.10;99.90;;;;;;5093974;27;20039;-84
2023/09/16 09:22:59;;;;;;;13.65;12.27;;;23.10;99.90;;;;;;5083743;27;20039;-84
2023/09/16 09:25:31;;;;;;;16.02;12.40;;;23.30;99.90;;;;;;5089406;28;20056;-85
2023/09/16 09:27:57;;;;;;;12.43;11.23;;;23.40;99.90;;;;;;5081781;27;20031;-87
2023/09/16 09:30:31;;;;;;;13.90;10.52;;;23.40;99.90;;;;;;5081537;27;20047;-85
2023/09/16 09:32:58;;;;;;;12.43;11.13;;;23.60;99.90;;;;;;5082800;27;20455;-86
2023/09/16 09:35:31;;;;;;;11.55;10.32;;;23.80;99.90;;;;;;5113967;27;20035;-86
2023/09/16 09:37:57;;;;;;;12.82;10.60;;;23.90;99.90;;;;;;5114218;27;20043;-84
2023/09/16 09:40:24;;;;;;;10.82;9.73;;;24.00;99.90;;;;;;5080812;27;20034;-83
2023/09/16 09:42:52;;;;;;;10.40;9.30;;;23.80;99.90;;;;;;5094463;27;20039;-84
2023/09/16 09:45:19;;;;;;;12.40;10.05;;;24.50;99.90;;;;;;5077391;27;20093;-87
2023/09/16 09:47:47;;;;;;;9.52;8.52;;;24.70;99.90;;;;;;5077339;28;20039;-84
2023/09/16 09:50:21;;;;;;;9.63;8.50;;;25.10;99.90;;;;;;5080050;28;20032;-88
2023/09/16 09:52:49;;;;;;;10.52;8.30;;;25.10;99.90;;;;;;5079779;28;20122;-85
2023/09/16 09:55:23;;;;;;;10.32;9.23;;;25.30;99.90;;;;;;5111974;27;20043;-85
2023/09/16 09:57:52;;;;;;;8.67;7.83;;;25.40;99.90;;;;;;5078826;27;20040;-84
2023/09/16 10:00:20;;;;;;;10.32;8.05;;;25.60;99.90;;;;;;5097216;27;20307;-84
2023/09/16 10:02:53;;;;;;;7.53;6.03;;;26.00;99.90;;;;;;5115726;27;20121;-83
2023/09/16 10:05:21;;;;;;;7.60;5.75;;;26.00;99.90;;;;;;5098827;27;20035;-86
2023/09/16 10:07:48;;;;;;;7.18;5.80;;;26.20;99.90;;;;;;5115305;27;20391;-84
2023/09/16 10:10:17;;;;;;;8.25;5.78;;;26.50;99.90;;;;;;5078738;28;20052;-86
2023/09/16 10:12:44;;;;;;;7.18;5.68;;;26.50;99.90;;;;;;5078587;28;20088;-86
2023/09/16 10:15:14;;;;;;;6.63;5.97;;;26.50;99.90;;;;;;5095581;28;20042;-85
2023/09/16 10:17:45;;;;;;;7.22;6.00;;;26.70;99.90;;;;;;5095493;28;20040;-85
2023/09/16 10:20:12;;;;;;;7.43;6.10;;;26.70;99.90;;;;;;5090839;28;20059;-83
2023/09/16 10:22:39;;;;;;;6.75;5.75;;;27.00;99.90;;;;;;5095289;28;20440;-84
2023/09/16 10:25:06;;;;;;;8.48;5.90;;;27.00;99.90;;;;;;5078514;28;20046;-84
2023/09/16 10:27:38;;;;;;;6.13;5.53;;;26.90;99.90;;;;;;5070797;28;20043;-83
2023/09/16 10:30:05;;;;;;;7.35;5.55;;;27.00;99.90;;;;;;5078512;28;20659;-84
2023/09/16 10:32:31;;;;;;;5.10;4.60;;;27.00;99.90;;;;;;5071329;27;20071;-84
2023/09/16 10:34:59;;;;;;;5.20;4.70;;;27.00;99.90;;;;;;5086321;28;20073;-84
2023/09/16 10:37:32;;;;;;;6.47;5.00;;;27.00;99.90;;;;;;5058857;28;20071;-83
2023/09/16 10:39:59;;;;;;;6.47;4.80;;;27.10;99.90;;;;;;5077553;28;20082;-85
2023/09/16 10:42:26;;;;;;;7.03;5.05;;;27.20;99.90;;;;;;5095605;28;20628;-84
2023/09/16 10:44:56;;;;;;;5.60;4.97;;;27.30;99.90;;;;;;5067450;27;20096;-85
2023/09/16 10:47:23;;;;;;;5.65;5.15;;;27.40;99.90;;;;;;5098578;27;20039;-86
2023/09/16 10:49:48;;;;;;;6.93;5.35;;;27.20;99.90;;;;;;5098615;27;20038;-87
2023/09/16 10:52:20;;;;;;;5.63;5.03;;;27.30;99.90;;;;;;5096751;27;20399;-65
2023/09/16 10:55:10;;;;;;;5.88;5.32;;;27.40;99.90;;;;;;5131076;27;20047;-88
2023/09/16 10:57:43;;;;;;;5.93;4.70;;;27.50;99.90;;;;;;5079925;28;20656;-88
2023/09/16 11:00:13;;;;;;;5.90;4.50;;;27.60;99.90;;;;;;5091351;27;20046;-85
2023/09/16 11:02:51;;;;;;;6.35;5.75;;;27.60;99.90;;;;;;5098137;27;20039;-87
2023/09/16 11:05:17;;;;;;;5.72;4.82;;;27.60;99.90;;;;;;5098361;27;20050;-91
2023/09/16 11:07:43;;;;;;;7.10;5.32;;;27.60;99.90;;;;;;5088689;28;20047;-87
2023/09/16 11:10:10;;;;;;;6.13;5.53;;;27.60;99.90;;;;;;5111678;28;20349;-87
2023/09/16 11:12:37;;;;;;;6.47;5.53;;;27.40;99.90;;;;;;5061401;28;20039;-88
2023/09/16 11:15:11;;;;;;;6.13;5.22;;;27.40;99.90;;;;;;5078766;27;20139;-86
2023/09/16 11:17:39;;;;;;;6.13;5.57;;;27.60;99.90;;;;;;5062489;28;20097;-89
2023/09/16 11:20:34;;;;;;;6.07;5.47;;;27.50;99.90;;;;;;5097432;27;20031;-87
2023/09/16 11:23:09;;;;;;;6.30;5.03;;;27.30;99.90;;;;;;5112547;27;20105;-88
2023/09/16 11:25:37;;;;;;;5.85;5.25;;;27.20;99.90;;;;;;5096257;27;20046;-86
2023/09/16 11:28:13;;;;;;;5.45;4.85;;;27.10;99.90;;;;;;5085406;28;20391;-87
2023/09/16 11:30:44;;;;;;;5.43;3.92;;;27.10;99.90;;;;;;5076965;28;20071;-87
2023/09/16 11:33:45;;;;;;;4.80;4.13;;;27.00;99.90;;;;;;5077907;28;20035;-90
2023/09/16 11:36:14;;;;;;;5.55;4.03;;;27.10;99.90;;;;;;5077222;28;20558;-88
2023/09/16 11:38:58;;;;;;;5.43;4.63;;;27.20;99.90;;;;;;5091278;27;20055;-91
2023/09/16 11:45:10;;;;;;;5.15;3.65;;;27.70;99.90;;;;;;5045028;28;20100;-86
2023/09/16 11:47:47;;;;;;;4.50;3.03;;;27.80;99.90;;;;;;5080890;28;20030;-85
2023/09/16 11:50:24;;;;;;;6.38;3.15;;;27.90;99.90;;;;;;5112867;27;20046;-83
2023/09/16 11:52:49;;;;;;;4.38;3.22;;;27.90;99.90;;;;;;5095526;27;20681;-86
2023/09/16 11:55:32;;;;;;;3.08;2.78;;;28.00;99.90;;;;;;5113591;28;20046;-85
2023/09/16 11:58:04;;;;;;;4.93;3.70;;;28.00;99.90;;;;;;5080745;28;20039;-84
2023/09/16 12:00:30;;;;;;;5.53;4.00;;;27.90;99.90;;;;;;5091444;28;20047;-84
2023/09/16 12:02:56;;;;;;;4.03;3.42;;;28.00;99.90;;;;;;5058578;28;20039;-85
2023/09/16 12:05:25;;;;;;;4.28;3.28;;;28.00;99.90;;;;;;5092272;28;20047;-83
2023/09/16 12:07:53;;;;;;;3.92;3.53;;;27.90;99.90;;;;;;5074931;28;20091;-84
2023/09/16 12:10:28;;;;;;;5.75;3.55;;;27.60;99.90;;;;;;5081931;27;20073;-84
2023/09/16 12:12:55;;;;;;;3.72;3.42;;;27.70;99.90;;;;;;5067395;28;20068;-85
2023/09/16 12:15:25;;;;;;;5.30;3.47;;;27.60;99.90;;;;;;5074426;28;20036;-85
2023/09/16 12:17:51;;;;;;;4.60;4.15;;;27.70;99.90;;;;;;5058917;28;20046;-84
2023/09/16 12:20:17;;;;;;;5.43;3.67;;;27.70;99.90;;;;;;5093303;27;20118;-86
2023/09/16 12:22:45;;;;;;;4.28;3.58;;;27.70;99.90;;;;;;5091395;28;20071;-84
2023/09/16 12:25:11;;;;;;;3.75;3.38;;;27.80;99.90;;;;;;5063999;27;20039;-86
2023/09/16 12:27:36;;;;;;;3.83;3.42;;;27.90;99.90;;;;;;5098837;28;20042;-85
2023/09/16 12:30:02;;;;;;;4.57;3.38;;;28.00;99.90;;;;;;5095897;28;20044;-85
2023/09/16 12:32:28;;;;;;;5.40;3.70;;;27.90;99.90;;;;;;5081345;27;20040;-85
2023/09/16 12:35:08;;;;;;;4.00;3.60;;;28.10;99.90;;;;;;5117124;27;20039;-84
2023/09/16 12:37:34;;;;;;;4.18;3.60;;;28.00;99.90;;;;;;5082767;27;20039;-85
2023/09/16 12:40:01;;;;;;;3.65;3.22;;;28.00;99.90;;;;;;5091141;27;20058;-85